sensor_id;sensor_type;location;lat;lon;timestamp;P1;durP1;ratioP1;P2;durP2;ratioP2
52468;SDS011;38381;53.688;10.776;2022-08-25T00:01:29;8.07;;;3.67;;
52468;SDS011;38381;53.688;10.776;2022-08-25T00:06:41;3.67;;;3.38;;
52468;SDS011;38381;53.688;10.776;2022-08-25T00:11:43;4.60;;;3.58;;
52468;SDS011;38381;53.688;10.776;2022-08-25T00:16:45;4.50;;;3.10;;
52468;SDS011;38381;53.688;10.776;2022-08-25T00:21:46;5.72;;;4.00;;
52468;SDS011;38381;53.688;10.776;2022-08-25T00:26:47;4.40;;;3.20;;
52468;SDS011;38381;53.688;10.776;2022-08-25T00:31:49;5.82;;;3.85;;
52468;SDS011;38381;53.688;10.776;2022-08-25T00:36:51;5.03;;;3.63;;
52468;SDS011;38381;53.688;10.776;2022-08-25T00:41:52;4.75;;;3.90;;
52468;SDS011;38381;53.688;10.776;2022-08-25T00:46:57;3.75;;;2.95;;
52468;SDS011;38381;53.688;10.776;2022-08-25T00:52:00;5.50;;;3.53;;
52468;SDS011;38381;53.688;10.776;2022-08-25T00:57:06;3.72;;;3.20;;
52468;SDS011;38381;53.688;10.776;2022-08-25T01:02:08;8.57;;;3.55;;
52468;SDS011;38381;53.688;10.776;2022-08-25T01:07:08;3.70;;;3.38;;
52468;SDS011;38381;53.688;10.776;2022-08-25T01:12:10;4.05;;;3.50;;
52468;SDS011;38381;53.688;10.776;2022-08-25T01:17:10;6.22;;;3.47;;
52468;SDS011;38381;53.688;10.776;2022-08-25T01:22:12;3.85;;;3.30;;
52468;SDS011;38381;53.688;10.776;2022-08-25T01:27:12;7.68;;;3.95;;
52468;SDS011;38381;53.688;10.776;2022-08-25T01:32:13;4.45;;;3.95;;
52468;SDS011;38381;53.688;10.776;2022-08-25T01:37:14;4.70;;;3.45;;
52468;SDS011;38381;53.688;10.776;2022-08-25T01:42:23;3.78;;;3.33;;
52468;SDS011;38381;53.688;10.776;2022-08-25T01:47:27;7.05;;;3.25;;
52468;SDS011;38381;53.688;10.776;2022-08-25T01:52:31;3.60;;;3.25;;
52468;SDS011;38381;53.688;10.776;2022-08-25T01:57:36;4.60;;;3.67;;
52468;SDS011;38381;53.688;10.776;2022-08-25T02:02:37;3.28;;;2.97;;
52468;SDS011;38381;53.688;10.776;2022-08-25T02:07:39;4.22;;;3.55;;
52468;SDS011;38381;53.688;10.776;2022-08-25T02:12:41;4.18;;;3.33;;
52468;SDS011;38381;53.688;10.776;2022-08-25T02:17:41;11.60;;;4.30;;
52468;SDS011;38381;53.688;10.776;2022-08-25T02:22:42;5.60;;;4.53;;
52468;SDS011;38381;53.688;10.776;2022-08-25T02:27:43;9.15;;;4.93;;
52468;SDS011;38381;53.688;10.776;2022-08-25T02:32:44;6.10;;;5.30;;
52468;SDS011;38381;53.688;10.776;2022-08-25T02:37:44;7.20;;;5.20;;
52468;SDS011;38381;53.688;10.776;2022-08-25T02:42:45;8.98;;;5.00;;
52468;SDS011;38381;53.688;10.776;2022-08-25T02:47:46;8.15;;;5.50;;
52468;SDS011;38381;53.688;10.776;2022-08-25T02:52:46;10.85;;;6.22;;
52468;SDS011;38381;53.688;10.776;2022-08-25T02:57:49;6.75;;;6.00;;
52468;SDS011;38381;53.688;10.776;2022-08-25T03:02:49;14.57;;;7.38;;
52468;SDS011;38381;53.688;10.776;2022-08-25T03:07:50;7.65;;;6.72;;
52468;SDS011;38381;53.688;10.776;2022-08-25T03:12:50;7.38;;;6.40;;
52468;SDS011;38381;53.688;10.776;2022-08-25T03:17:50;8.60;;;6.30;;
52468;SDS011;38381;53.688;10.776;2022-08-25T03:22:51;11.03;;;6.70;;
52468;SDS011;38381;53.688;10.776;2022-08-25T03:27:51;10.13;;;7.88;;
52468;SDS011;38381;53.688;10.776;2022-08-25T03:32:51;7.43;;;6.73;;
52468;SDS011;38381;53.688;10.776;2022-08-25T03:37:55;7.18;;;6.45;;
52468;SDS011;38381;53.688;10.776;2022-08-25T03:42:57;8.90;;;7.00;;
52468;SDS011;38381;53.688;10.776;2022-08-25T03:47:57;7.53;;;6.73;;
52468;SDS011;38381;53.688;10.776;2022-08-25T03:52:57;9.32;;;8.10;;
52468;SDS011;38381;53.688;10.776;2022-08-25T03:57:58;12.07;;;8.75;;
52468;SDS011;38381;53.688;10.776;2022-08-25T04:02:58;12.73;;;8.27;;
52468;SDS011;38381;53.688;10.776;2022-08-25T04:07:58;7.90;;;7.15;;
52468;SDS011;38381;53.688;10.776;2022-08-25T04:13:00;8.73;;;7.90;;
52468;SDS011;38381;53.688;10.776;2022-08-25T04:18:00;11.77;;;8.00;;
52468;SDS011;38381;53.688;10.776;2022-08-25T04:23:01;14.90;;;9.15;;
52468;SDS011;38381;53.688;10.776;2022-08-25T04:28:01;13.30;;;7.70;;
52468;SDS011;38381;53.688;10.776;2022-08-25T04:33:02;10.75;;;8.73;;
52468;SDS011;38381;53.688;10.776;2022-08-25T04:38:02;10.23;;;8.97;;
52468;SDS011;38381;53.688;10.776;2022-08-25T04:43:03;8.10;;;7.38;;
52468;SDS011;38381;53.688;10.776;2022-08-25T04:48:03;11.70;;;9.13;;
52468;SDS011;38381;53.688;10.776;2022-08-25T04:53:04;14.70;;;9.23;;
52468;SDS011;38381;53.688;10.776;2022-08-25T04:58:04;11.97;;;9.27;;
52468;SDS011;38381;53.688;10.776;2022-08-25T05:03:04;12.63;;;9.85;;
52468;SDS011;38381;53.688;10.776;2022-08-25T05:08:05;13.65;;;10.93;;
52468;SDS011;38381;53.688;10.776;2022-08-25T05:13:06;9.47;;;8.17;;
52468;SDS011;38381;53.688;10.776;2022-08-25T05:18:06;10.82;;;9.38;;
52468;SDS011;38381;53.688;10.776;2022-08-25T05:23:07;15.38;;;10.38;;
52468;SDS011;38381;53.688;10.776;2022-08-25T05:28:07;12.88;;;11.60;;
52468;SDS011;38381;53.688;10.776;2022-08-25T05:33:08;11.95;;;10.68;;
52468;SDS011;38381;53.688;10.776;2022-08-25T05:43:11;11.80;;;8.25;;
52468;SDS011;38381;53.688;10.776;2022-08-25T05:48:12;11.30;;;9.20;;
52468;SDS011;38381;53.688;10.776;2022-08-25T05:53:12;13.23;;;9.23;;
52468;SDS011;38381;53.688;10.776;2022-08-25T05:58:12;9.68;;;8.68;;
52468;SDS011;38381;53.688;10.776;2022-08-25T06:03:13;10.45;;;7.93;;
52468;SDS011;38381;53.688;10.776;2022-08-25T06:08:13;8.70;;;7.77;;
52468;SDS011;38381;53.688;10.776;2022-08-25T06:13:14;10.23;;;7.97;;
52468;SDS011;38381;53.688;10.776;2022-08-25T06:18:15;19.27;;;6.30;;
52468;SDS011;38381;53.688;10.776;2022-08-25T06:23:15;9.65;;;7.95;;
52468;SDS011;38381;53.688;10.776;2022-08-25T06:33:19;6.22;;;5.63;;
52468;SDS011;38381;53.688;10.776;2022-08-25T06:38:19;7.88;;;5.72;;
52468;SDS011;38381;53.688;10.776;2022-08-25T06:43:19;8.18;;;5.82;;
52468;SDS011;38381;53.688;10.776;2022-08-25T06:48:20;6.90;;;5.78;;
52468;SDS011;38381;53.688;10.776;2022-08-25T06:53:22;8.32;;;6.82;;
52468;SDS011;38381;53.688;10.776;2022-08-25T06:58:23;7.57;;;6.05;;
52468;SDS011;38381;53.688;10.776;2022-08-25T07:03:23;10.70;;;6.90;;
52468;SDS011;38381;53.688;10.776;2022-08-25T07:08:23;7.90;;;6.23;;
52468;SDS011;38381;53.688;10.776;2022-08-25T07:13:24;13.63;;;5.57;;
52468;SDS011;38381;53.688;10.776;2022-08-25T07:18:25;7.60;;;6.03;;
52468;SDS011;38381;53.688;10.776;2022-08-25T07:23:26;7.20;;;5.38;;
52468;SDS011;38381;53.688;10.776;2022-08-25T07:28:26;11.02;;;6.05;;
52468;SDS011;38381;53.688;10.776;2022-08-25T07:33:26;6.40;;;5.35;;
52468;SDS011;38381;53.688;10.776;2022-08-25T07:38:27;6.53;;;5.20;;
52468;SDS011;38381;53.688;10.776;2022-08-25T07:43:28;7.53;;;4.97;;
52468;SDS011;38381;53.688;10.776;2022-08-25T07:48:29;9.13;;;4.82;;
52468;SDS011;38381;53.688;10.776;2022-08-25T07:53:30;10.60;;;5.22;;
52468;SDS011;38381;53.688;10.776;2022-08-25T07:58:30;8.45;;;4.45;;
52468;SDS011;38381;53.688;10.776;2022-08-25T08:03:30;7.15;;;4.97;;
52468;SDS011;38381;53.688;10.776;2022-08-25T08:08:33;6.75;;;5.22;;
52468;SDS011;38381;53.688;10.776;2022-08-25T08:13:33;5.60;;;5.10;;
52468;SDS011;38381;53.688;10.776;2022-08-25T08:18:33;6.40;;;4.35;;
52468;SDS011;38381;53.688;10.776;2022-08-25T08:23:33;6.03;;;4.70;;
52468;SDS011;38381;53.688;10.776;2022-08-25T08:28:34;7.75;;;4.72;;
52468;SDS011;38381;53.688;10.776;2022-08-25T08:33:34;5.50;;;4.80;;
52468;SDS011;38381;53.688;10.776;2022-08-25T08:38:35;5.23;;;4.40;;
52468;SDS011;38381;53.688;10.776;2022-08-25T08:43:36;5.57;;;4.57;;
52468;SDS011;38381;53.688;10.776;2022-08-25T08:49:02;6.05;;;3.80;;
52468;SDS011;38381;53.688;10.776;2022-08-25T08:54:12;7.38;;;4.45;;
52468;SDS011;38381;53.688;10.776;2022-08-25T08:59:18;6.47;;;4.22;;
52468;SDS011;38381;53.688;10.776;2022-08-25T09:04:25;8.25;;;3.88;;
52468;SDS011;38381;53.688;10.776;2022-08-25T09:09:31;6.22;;;3.33;;
52468;SDS011;38381;53.688;10.776;2022-08-25T09:14:40;8.45;;;3.88;;
52468;SDS011;38381;53.688;10.776;2022-08-25T09:30:22;3.72;;;3.10;;
52468;SDS011;38381;53.688;10.776;2022-08-25T09:35:24;6.40;;;3.70;;
52468;SDS011;38381;53.688;10.776;2022-08-25T09:40:32;6.28;;;3.53;;
52468;SDS011;38381;53.688;10.776;2022-08-25T09:45:41;6.13;;;3.50;;
52468;SDS011;38381;53.688;10.776;2022-08-25T09:50:45;3.85;;;2.97;;
52468;SDS011;38381;53.688;10.776;2022-08-25T09:55:46;8.33;;;4.13;;
52468;SDS011;38381;53.688;10.776;2022-08-25T10:01:05;5.82;;;3.00;;
52468;SDS011;38381;53.688;10.776;2022-08-25T10:06:12;3.60;;;3.17;;
52468;SDS011;38381;53.688;10.776;2022-08-25T10:11:34;5.03;;;3.55;;
52468;SDS011;38381;53.688;10.776;2022-08-25T10:16:42;3.17;;;2.72;;
52468;SDS011;38381;53.688;10.776;2022-08-25T10:21:43;4.88;;;2.97;;
52468;SDS011;38381;53.688;10.776;2022-08-25T10:26:50;4.22;;;3.20;;
52468;SDS011;38381;53.688;10.776;2022-08-25T10:32:04;7.18;;;2.75;;
52468;SDS011;38381;53.688;10.776;2022-08-25T10:58:14;3.75;;;2.80;;
52468;SDS011;38381;53.688;10.776;2022-08-25T11:04:04;3.70;;;2.93;;
52468;SDS011;38381;53.688;10.776;2022-08-25T11:08:58;4.00;;;2.63;;
52468;SDS011;38381;53.688;10.776;2022-08-25T11:14:06;5.10;;;2.80;;
52468;SDS011;38381;53.688;10.776;2022-08-25T11:24:48;7.03;;;3.80;;
52468;SDS011;38381;53.688;10.776;2022-08-25T11:29:57;6.53;;;3.22;;
52468;SDS011;38381;53.688;10.776;2022-08-25T11:35:05;6.00;;;2.80;;
52468;SDS011;38381;53.688;10.776;2022-08-25T11:46:00;6.00;;;2.25;;
52468;SDS011;38381;53.688;10.776;2022-08-25T11:56:33;8.00;;;2.95;;
52468;SDS011;38381;53.688;10.776;2022-08-25T12:12:31;3.10;;;2.50;;
52468;SDS011;38381;53.688;10.776;2022-08-25T12:17:37;3.85;;;2.90;;
52468;SDS011;38381;53.688;10.776;2022-08-25T12:22:39;5.07;;;2.40;;
52468;SDS011;38381;53.688;10.776;2022-08-25T12:33:24;3.22;;;2.50;;
52468;SDS011;38381;53.688;10.776;2022-08-25T12:43:43;4.07;;;3.45;;
52468;SDS011;38381;53.688;10.776;2022-08-25T12:59:38;5.38;;;2.90;;
52468;SDS011;38381;53.688;10.776;2022-08-25T13:15:33;6.22;;;3.25;;
52468;SDS011;38381;53.688;10.776;2022-08-25T13:20:39;5.07;;;3.30;;
52468;SDS011;38381;53.688;10.776;2022-08-25T13:25:45;6.60;;;2.87;;
52468;SDS011;38381;53.688;10.776;2022-08-25T13:30:55;4.90;;;3.03;;
52468;SDS011;38381;53.688;10.776;2022-08-25T13:35:59;10.10;;;4.25;;
52468;SDS011;38381;53.688;10.776;2022-08-25T13:41:19;3.38;;;2.83;;
52468;SDS011;38381;53.688;10.776;2022-08-25T13:46:24;6.45;;;3.05;;
52468;SDS011;38381;53.688;10.776;2022-08-25T13:51:25;3.92;;;3.10;;
52468;SDS011;38381;53.688;10.776;2022-08-25T14:01:29;3.88;;;2.88;;
52468;SDS011;38381;53.688;10.776;2022-08-25T14:06:32;4.47;;;3.38;;
52468;SDS011;38381;53.688;10.776;2022-08-25T14:11:39;5.55;;;3.05;;
52468;SDS011;38381;53.688;10.776;2022-08-25T14:16:47;3.75;;;2.97;;
52468;SDS011;38381;53.688;10.776;2022-08-25T14:21:50;4.75;;;3.10;;
52468;SDS011;38381;53.688;10.776;2022-08-25T14:26:52;4.47;;;2.40;;
52468;SDS011;38381;53.688;10.776;2022-08-25T14:36:54;12.55;;;3.97;;
52468;SDS011;38381;53.688;10.776;2022-08-25T14:41:55;4.55;;;2.97;;
52468;SDS011;38381;53.688;10.776;2022-08-25T14:46:55;3.37;;;2.77;;
52468;SDS011;38381;53.688;10.776;2022-08-25T14:51:56;3.88;;;2.53;;
52468;SDS011;38381;53.688;10.776;2022-08-25T14:57:11;4.30;;;2.60;;
52468;SDS011;38381;53.688;10.776;2022-08-25T15:02:12;4.90;;;3.08;;
52468;SDS011;38381;53.688;10.776;2022-08-25T15:07:17;7.45;;;3.10;;
52468;SDS011;38381;53.688;10.776;2022-08-25T15:12:36;6.03;;;3.13;;
52468;SDS011;38381;53.688;10.776;2022-08-25T15:17:37;3.33;;;2.90;;
52468;SDS011;38381;53.688;10.776;2022-08-25T15:22:40;4.38;;;2.70;;
52468;SDS011;38381;53.688;10.776;2022-08-25T15:27:40;3.67;;;2.83;;
52468;SDS011;38381;53.688;10.776;2022-08-25T15:32:41;6.67;;;2.90;;
52468;SDS011;38381;53.688;10.776;2022-08-25T15:37:41;5.93;;;2.93;;
52468;SDS011;38381;53.688;10.776;2022-08-25T15:42:41;4.55;;;2.70;;
52468;SDS011;38381;53.688;10.776;2022-08-25T15:47:41;6.65;;;3.10;;
52468;SDS011;38381;53.688;10.776;2022-08-25T15:52:42;5.95;;;2.42;;
52468;SDS011;38381;53.688;10.776;2022-08-25T15:57:42;4.57;;;3.20;;
52468;SDS011;38381;53.688;10.776;2022-08-25T16:02:43;4.20;;;2.80;;
52468;SDS011;38381;53.688;10.776;2022-08-25T16:07:43;10.73;;;3.37;;
52468;SDS011;38381;53.688;10.776;2022-08-25T16:12:44;5.57;;;2.88;;
52468;SDS011;38381;53.688;10.776;2022-08-25T16:17:45;5.63;;;3.33;;
52468;SDS011;38381;53.688;10.776;2022-08-25T16:22:45;4.38;;;3.30;;
52468;SDS011;38381;53.688;10.776;2022-08-25T16:27:46;8.82;;;3.72;;
52468;SDS011;38381;53.688;10.776;2022-08-25T16:32:47;5.57;;;2.90;;
52468;SDS011;38381;53.688;10.776;2022-08-25T16:37:47;8.50;;;3.20;;
52468;SDS011;38381;53.688;10.776;2022-08-25T16:42:48;5.77;;;3.73;;
52468;SDS011;38381;53.688;10.776;2022-08-25T16:47:48;4.70;;;3.33;;
52468;SDS011;38381;53.688;10.776;2022-08-25T16:52:49;6.93;;;3.27;;
52468;SDS011;38381;53.688;10.776;2022-08-25T16:58:08;5.68;;;3.63;;
52468;SDS011;38381;53.688;10.776;2022-08-25T17:03:09;10.00;;;3.93;;
52468;SDS011;38381;53.688;10.776;2022-08-25T17:08:09;15.93;;;4.63;;
52468;SDS011;38381;53.688;10.776;2022-08-25T17:13:28;14.55;;;4.40;;
52468;SDS011;38381;53.688;10.776;2022-08-25T17:18:29;16.73;;;5.00;;
52468;SDS011;38381;53.688;10.776;2022-08-25T17:23:30;12.23;;;4.93;;
52468;SDS011;38381;53.688;10.776;2022-08-25T17:28:31;8.68;;;4.45;;
52468;SDS011;38381;53.688;10.776;2022-08-25T17:38:33;14.75;;;4.13;;
52468;SDS011;38381;53.688;10.776;2022-08-25T17:43:35;20.67;;;4.67;;
52468;SDS011;38381;53.688;10.776;2022-08-25T17:48:38;12.48;;;5.05;;
52468;SDS011;38381;53.688;10.776;2022-08-25T17:53:39;16.05;;;3.92;;
52468;SDS011;38381;53.688;10.776;2022-08-25T17:58:40;11.87;;;5.40;;
52468;SDS011;38381;53.688;10.776;2022-08-25T18:03:41;7.53;;;4.60;;
52468;SDS011;38381;53.688;10.776;2022-08-25T18:08:42;5.25;;;3.55;;
52468;SDS011;38381;53.688;10.776;2022-08-25T18:13:43;8.68;;;3.60;;
52468;SDS011;38381;53.688;10.776;2022-08-25T18:18:44;9.37;;;3.67;;
52468;SDS011;38381;53.688;10.776;2022-08-25T18:23:45;5.37;;;3.67;;
52468;SDS011;38381;53.688;10.776;2022-08-25T18:28:46;10.15;;;4.22;;
52468;SDS011;38381;53.688;10.776;2022-08-25T18:33:47;3.87;;;3.40;;
52468;SDS011;38381;53.688;10.776;2022-08-25T18:38:48;10.07;;;4.03;;
52468;SDS011;38381;53.688;10.776;2022-08-25T18:44:07;8.93;;;3.90;;
52468;SDS011;38381;53.688;10.776;2022-08-25T18:49:08;4.60;;;2.93;;
52468;SDS011;38381;53.688;10.776;2022-08-25T18:54:08;7.97;;;4.38;;
52468;SDS011;38381;53.688;10.776;2022-08-25T18:59:09;5.27;;;3.67;;
52468;SDS011;38381;53.688;10.776;2022-08-25T19:04:09;5.80;;;4.15;;
52468;SDS011;38381;53.688;10.776;2022-08-25T19:09:10;7.93;;;4.65;;
52468;SDS011;38381;53.688;10.776;2022-08-25T19:14:10;6.53;;;4.53;;
52468;SDS011;38381;53.688;10.776;2022-08-25T19:19:11;8.07;;;4.33;;
52468;SDS011;38381;53.688;10.776;2022-08-25T19:24:12;5.07;;;3.77;;
52468;SDS011;38381;53.688;10.776;2022-08-25T19:29:14;8.20;;;4.47;;
52468;SDS011;38381;53.688;10.776;2022-08-25T19:34:18;5.60;;;3.90;;
52468;SDS011;38381;53.688;10.776;2022-08-25T19:39:21;5.70;;;3.63;;
52468;SDS011;38381;53.688;10.776;2022-08-25T19:44:22;5.80;;;4.00;;
52468;SDS011;38381;53.688;10.776;2022-08-25T19:49:24;4.33;;;3.57;;
52468;SDS011;38381;53.688;10.776;2022-08-25T19:54:33;6.45;;;4.20;;
52468;SDS011;38381;53.688;10.776;2022-08-25T19:59:37;7.05;;;4.88;;
52468;SDS011;38381;53.688;10.776;2022-08-25T20:04:39;9.52;;;4.60;;
52468;SDS011;38381;53.688;10.776;2022-08-25T20:09:40;10.60;;;3.97;;
52468;SDS011;38381;53.688;10.776;2022-08-25T20:14:40;7.72;;;4.88;;
52468;SDS011;38381;53.688;10.776;2022-08-25T20:19:41;6.07;;;4.10;;
52468;SDS011;38381;53.688;10.776;2022-08-25T20:24:41;7.30;;;4.20;;
52468;SDS011;38381;53.688;10.776;2022-08-25T20:29:50;10.18;;;5.15;;
52468;SDS011;38381;53.688;10.776;2022-08-25T20:34:53;6.65;;;3.65;;
52468;SDS011;38381;53.688;10.776;2022-08-25T20:39:54;7.03;;;4.30;;
52468;SDS011;38381;53.688;10.776;2022-08-25T20:44:54;5.83;;;4.10;;
52468;SDS011;38381;53.688;10.776;2022-08-25T20:49:56;7.30;;;4.60;;
52468;SDS011;38381;53.688;10.776;2022-08-25T20:54:57;9.25;;;4.30;;
52468;SDS011;38381;53.688;10.776;2022-08-25T20:59:57;6.13;;;4.30;;
52468;SDS011;38381;53.688;10.776;2022-08-25T21:04:58;5.22;;;3.72;;
52468;SDS011;38381;53.688;10.776;2022-08-25T21:10:00;9.20;;;5.35;;
52468;SDS011;38381;53.688;10.776;2022-08-25T21:15:00;5.35;;;4.35;;
52468;SDS011;38381;53.688;10.776;2022-08-25T21:20:02;7.83;;;4.20;;
52468;SDS011;38381;53.688;10.776;2022-08-25T21:25:04;10.57;;;5.38;;
52468;SDS011;38381;53.688;10.776;2022-08-25T21:30:05;8.97;;;4.60;;
52468;SDS011;38381;53.688;10.776;2022-08-25T21:35:06;8.18;;;4.97;;
52468;SDS011;38381;53.688;10.776;2022-08-25T21:40:07;16.58;;;5.72;;
52468;SDS011;38381;53.688;10.776;2022-08-25T21:45:07;6.38;;;4.97;;
52468;SDS011;38381;53.688;10.776;2022-08-25T21:50:09;8.27;;;5.10;;
52468;SDS011;38381;53.688;10.776;2022-08-25T21:55:11;9.63;;;5.05;;
52468;SDS011;38381;53.688;10.776;2022-08-25T22:00:12;8.32;;;5.68;;
52468;SDS011;38381;53.688;10.776;2022-08-25T22:05:13;9.00;;;5.07;;
52468;SDS011;38381;53.688;10.776;2022-08-25T22:10:14;7.10;;;4.63;;
52468;SDS011;38381;53.688;10.776;2022-08-25T22:15:14;5.67;;;5.17;;
52468;SDS011;38381;53.688;10.776;2022-08-25T22:20:16;12.40;;;4.82;;
52468;SDS011;38381;53.688;10.776;2022-08-25T22:25:17;8.57;;;4.73;;
52468;SDS011;38381;53.688;10.776;2022-08-25T22:30:17;10.02;;;5.03;;
52468;SDS011;38381;53.688;10.776;2022-08-25T22:35:17;8.27;;;4.83;;
52468;SDS011;38381;53.688;10.776;2022-08-25T22:40:18;7.10;;;4.67;;
52468;SDS011;38381;53.688;10.776;2022-08-25T22:45:18;7.13;;;4.30;;
52468;SDS011;38381;53.688;10.776;2022-08-25T22:50:19;7.30;;;4.82;;
52468;SDS011;38381;53.688;10.776;2022-08-25T22:55:20;8.70;;;4.97;;
52468;SDS011;38381;53.688;10.776;2022-08-25T23:00:21;7.75;;;4.25;;
52468;SDS011;38381;53.688;10.776;2022-08-25T23:05:21;7.00;;;4.23;;
52468;SDS011;38381;53.688;10.776;2022-08-25T23:10:22;6.50;;;4.35;;
52468;SDS011;38381;53.688;10.776;2022-08-25T23:15:22;8.60;;;5.43;;
52468;SDS011;38381;53.688;10.776;2022-08-25T23:20:23;7.60;;;5.38;;
52468;SDS011;38381;53.688;10.776;2022-08-25T23:25:42;8.30;;;5.03;;
52468;SDS011;38381;53.688;10.776;2022-08-25T23:30:42;6.47;;;4.40;;
52468;SDS011;38381;53.688;10.776;2022-08-25T23:35:43;6.60;;;4.78;;
52468;SDS011;38381;53.688;10.776;2022-08-25T23:40:44;5.07;;;4.33;;
52468;SDS011;38381;53.688;10.776;2022-08-25T23:45:44;6.00;;;4.22;;
52468;SDS011;38381;53.688;10.776;2022-08-25T23:50:45;6.05;;;4.60;;
52468;SDS011;38381;53.688;10.776;2022-08-25T23:55:47;8.27;;;4.85;;
